createdAt,value
2016-09-01T00:00:37.915Z,-52
2016-09-01T00:01:37.821Z,-53
2016-09-01T00:02:37.786Z,-52
2016-09-01T00:03:38.345Z,-53
2016-09-01T00:04:37.969Z,-51
2016-09-01T00:05:37.788Z,-51
2016-09-01T00:06:38.046Z,-53
2016-09-01T00:07:37.814Z,-52
2016-09-01T00:08:37.789Z,-52
2016-09-01T00:09:37.767Z,-50
2016-09-01T00:10:37.780Z,-52
2016-09-01T00:11:37.797Z,-52
2016-09-01T00:12:37.880Z,-50
2016-09-01T00:13:37.809Z,-51
2016-09-01T00:14:37.870Z,-53
2016-09-01T00:15:37.778Z,-53
2016-09-01T00:16:37.803Z,-53
2016-09-01T00:17:37.790Z,-53
2016-09-01T00:18:37.817Z,-52
2016-09-01T00:19:37.838Z,-52
2016-09-01T00:20:37.836Z,-52
2016-09-01T00:21:37.866Z,-52
2016-09-01T00:22:37.872Z,-52
2016-09-01T00:23:37.813Z,-50
2016-09-01T00:24:37.871Z,-50
2016-09-01T00:25:37.838Z,-50
2016-09-01T00:26:37.835Z,-52
2016-09-01T00:27:37.890Z,-53
2016-09-01T00:28:37.844Z,-53
2016-09-01T00:29:37.852Z,-52
2016-09-01T00:30:37.917Z,-52
2016-09-01T00:31:37.879Z,-52
2016-09-01T00:32:37.872Z,-50
2016-09-01T00:33:37.938Z,-51
2016-09-01T00:34:37.798Z,-51
2016-09-01T00:35:37.842Z,-51
2016-09-01T00:36:37.970Z,-47
2016-09-01T00:37:37.790Z,-47
2016-09-01T00:38:37.879Z,-51
2016-09-01T00:39:38.051Z,-51
2016-09-01T00:40:37.820Z,-49
2016-09-01T00:41:37.829Z,-49
2016-09-01T00:42:37.850Z,-51
2016-09-01T00:43:37.797Z,-51
2016-09-01T00:44:37.884Z,-53
2016-09-01T00:45:37.840Z,-49
2016-09-01T00:46:37.855Z,-53
2016-09-01T00:47:37.880Z,-51
2016-09-01T00:48:38.714Z,-52
2016-09-01T00:49:37.942Z,-53
2016-09-01T00:50:37.887Z,-52
2016-09-01T00:51:37.988Z,-51
2016-09-01T00:52:37.857Z,-49
2016-09-01T00:53:37.870Z,-50
2016-09-01T00:54:37.974Z,-52
2016-09-01T00:55:37.823Z,-51
2016-09-01T00:56:37.900Z,-52
2016-09-01T00:57:37.846Z,-51
2016-09-01T00:58:37.828Z,-50
2016-09-01T00:59:37.817Z,-50
2016-09-01T01:00:38.069Z,-51
2016-09-01T01:01:37.784Z,-51
2016-09-01T01:02:37.809Z,-50
2016-09-01T01:03:37.901Z,-53
2016-09-01T01:04:37.830Z,-51
2016-09-01T01:05:37.838Z,-51
2016-09-01T01:06:38.092Z,-52
2016-09-01T01:07:37.794Z,-52
2016-09-01T01:08:37.844Z,-52
2016-09-01T01:09:38.009Z,-52
2016-09-01T01:10:37.825Z,-52
2016-09-01T01:11:37.847Z,-53
2016-09-01T01:12:37.969Z,-49
2016-09-01T01:13:37.821Z,-49
2016-09-01T01:14:37.822Z,-50
2016-09-01T01:15:38.049Z,-51
2016-09-01T01:16:37.838Z,-50
2016-09-01T01:17:37.827Z,-50
2016-09-01T01:18:38.035Z,-49
2016-09-01T01:19:37.840Z,-52
2016-09-01T01:20:37.893Z,-53
2016-09-01T01:21:37.838Z,-51
2016-09-01T01:22:37.819Z,-52
2016-09-01T01:23:37.823Z,-52
2016-09-01T01:24:37.918Z,-53
2016-09-01T01:25:37.823Z,-52
2016-09-01T01:26:37.825Z,-53
2016-09-01T01:27:38.067Z,-53
2016-09-01T01:28:37.844Z,-53
2016-09-01T01:29:37.843Z,-53
2016-09-01T01:30:38.191Z,-52
2016-09-01T01:31:37.930Z,-52
2016-09-01T01:32:37.956Z,-52
2016-09-01T01:33:37.918Z,-51
2016-09-01T01:34:37.870Z,-52
2016-09-01T01:35:37.863Z,-50
2016-09-01T01:36:38.033Z,-51
2016-09-01T01:37:37.846Z,-53
2016-09-01T01:38:37.867Z,-52
2016-09-01T01:39:37.828Z,-52
2016-09-01T01:40:37.854Z,-52
2016-09-01T01:41:37.874Z,-53
2016-09-01T01:42:37.952Z,-52
2016-09-01T01:43:37.857Z,-50
2016-09-01T01:44:37.871Z,-52
2016-09-01T01:45:37.870Z,-51
2016-09-01T01:46:37.867Z,-52
2016-09-01T01:47:37.874Z,-52
2016-09-01T01:48:37.995Z,-53
2016-09-01T01:49:37.896Z,-51
2016-09-01T01:50:38.124Z,-50
2016-09-01T01:51:38.059Z,-50
2016-09-01T01:52:37.847Z,-50
2016-09-01T01:53:37.889Z,-49
2016-09-01T01:54:37.947Z,-50
2016-09-01T01:55:37.886Z,-50
2016-09-01T01:56:37.892Z,-49
2016-09-01T01:57:37.914Z,-50
2016-09-01T01:58:37.905Z,-50
2016-09-01T01:59:37.886Z,-47
2016-09-01T02:00:38.197Z,-47
2016-09-01T02:01:37.895Z,-49
2016-09-01T02:02:37.917Z,-49
2016-09-01T02:03:38.172Z,-49
2016-09-01T02:04:37.872Z,-52
2016-09-01T02:05:37.880Z,-51
2016-09-01T02:06:37.975Z,-52
2016-09-01T02:07:37.836Z,-51
2016-09-01T02:08:37.900Z,-49
2016-09-01T02:09:37.864Z,-47
2016-09-01T02:10:37.884Z,-50
2016-09-01T02:11:37.921Z,-50
2016-09-01T02:12:38.024Z,-50
2016-09-01T02:13:37.894Z,-48
2016-09-01T02:14:37.841Z,-49
2016-09-01T02:15:38.081Z,-51
2016-09-01T02:16:37.900Z,-50
2016-09-01T02:17:37.888Z,-51
2016-09-01T02:18:38.346Z,-52
2016-09-01T02:19:37.891Z,-50
2016-09-01T02:20:37.888Z,-51
2016-09-01T02:21:38.386Z,-51
2016-09-01T02:22:37.902Z,-50
2016-09-01T02:23:37.934Z,-50
2016-09-01T02:24:37.937Z,-50
2016-09-01T02:25:37.907Z,-50
2016-09-01T02:26:37.887Z,-51
2016-09-01T02:27:37.965Z,-51
2016-09-01T02:28:37.898Z,-51
2016-09-01T02:29:37.949Z,-51
2016-09-01T02:30:37.902Z,-52
2016-09-01T02:31:37.929Z,-52
2016-09-01T02:32:37.937Z,-52
2016-09-01T02:33:37.884Z,-49
2016-09-01T02:34:37.931Z,-51
2016-09-01T02:35:37.931Z,-52
2016-09-01T02:36:37.919Z,-52
2016-09-01T02:37:37.903Z,-52
2016-09-01T02:38:37.917Z,-49
2016-09-01T02:39:37.918Z,-51
2016-09-01T02:40:37.949Z,-51
2016-09-01T02:41:37.946Z,-52
2016-09-01T02:42:38.309Z,-52
2016-09-01T02:43:37.933Z,-53
2016-09-01T02:44:38.043Z,-52
2016-09-01T02:45:38.135Z,-53
2016-09-01T02:46:37.954Z,-52
2016-09-01T02:47:37.919Z,-53
2016-09-01T02:48:37.936Z,-52
2016-09-01T02:49:37.933Z,-51
2016-09-01T02:50:37.889Z,-52
2016-09-01T02:51:37.938Z,-52
2016-09-01T02:52:37.917Z,-51
2016-09-01T02:53:37.932Z,-51
2016-09-01T02:54:37.916Z,-51
2016-09-01T02:55:37.890Z,-52
2016-09-01T02:56:37.933Z,-51
2016-09-01T02:57:37.956Z,-51
2016-09-01T02:58:37.918Z,-52
2016-09-01T02:59:37.938Z,-52
2016-09-01T03:00:37.918Z,-51
2016-09-01T03:01:37.923Z,-51
2016-09-01T03:02:37.923Z,-51
2016-09-01T03:03:37.908Z,-51
2016-09-01T03:04:37.933Z,-52
2016-09-01T03:05:37.923Z,-51
2016-09-01T03:06:37.937Z,-50
2016-09-01T03:07:37.921Z,-53
2016-09-01T03:08:37.942Z,-51
2016-09-01T03:09:37.919Z,-52
2016-09-01T03:10:37.925Z,-52
2016-09-01T03:11:37.934Z,-52
2016-09-01T03:12:37.925Z,-51
2016-09-01T03:13:37.961Z,-52
2016-09-01T03:14:37.922Z,-51
2016-09-01T03:15:37.933Z,-50
2016-09-01T03:16:37.939Z,-52
2016-09-01T03:17:37.945Z,-52
2016-09-01T03:18:37.923Z,-52
2016-09-01T03:19:37.948Z,-51
2016-09-01T03:20:37.925Z,-51
2016-09-01T03:21:37.936Z,-51
2016-09-01T03:22:37.949Z,-50
2016-09-01T03:23:37.930Z,-50
2016-09-01T03:24:38.079Z,-50
2016-09-01T03:25:37.910Z,-51
2016-09-01T03:26:38.026Z,-51
2016-09-01T03:27:38.083Z,-51
2016-09-01T03:28:38.006Z,-51
2016-09-01T03:29:37.967Z,-51
2016-09-01T03:30:37.982Z,-51
2016-09-01T03:31:37.966Z,-52
2016-09-01T03:32:38.019Z,-51
2016-09-01T03:33:38.027Z,-51
2016-09-01T03:34:37.970Z,-51
2016-09-01T03:35:37.995Z,-51
2016-09-01T03:36:37.974Z,-49
2016-09-01T03:37:37.979Z,-51
2016-09-01T03:38:37.944Z,-50
2016-09-01T03:39:38.014Z,-51
2016-09-01T03:40:37.943Z,-52
2016-09-01T03:41:37.937Z,-52
2016-09-01T03:42:38.078Z,-52
2016-09-01T03:43:37.956Z,-50
2016-09-01T03:44:37.998Z,-50
2016-09-01T03:45:38.312Z,-49
2016-09-01T03:46:37.981Z,-50
2016-09-01T03:47:37.956Z,-52
2016-09-01T03:48:38.042Z,-51
2016-09-01T03:49:38.006Z,-52
2016-09-01T03:50:37.981Z,-52
2016-09-01T03:51:37.981Z,-51
2016-09-01T03:52:37.983Z,-51
2016-09-01T03:53:37.970Z,-49
2016-09-01T03:54:38.706Z,-49
2016-09-01T03:55:38.017Z,-49
2016-09-01T03:56:37.960Z,-49
2016-09-01T03:57:38.508Z,-49
2016-09-01T03:58:37.969Z,-50
2016-09-01T03:59:37.982Z,-51
2016-09-01T04:00:38.116Z,-53
2016-09-01T04:01:37.964Z,-52
2016-09-01T04:02:38.001Z,-52
2016-09-01T04:03:37.968Z,-53
2016-09-01T04:04:37.968Z,-52
2016-09-01T04:05:37.943Z,-52
2016-09-01T04:06:37.998Z,-52
2016-09-01T04:07:38.003Z,-52
2016-09-01T04:08:38.010Z,-51
2016-09-01T04:09:38.002Z,-50
2016-09-01T04:10:37.980Z,-50
2016-09-01T04:11:38.012Z,-51
2016-09-01T04:12:38.092Z,-51
2016-09-01T04:13:37.972Z,-50
2016-09-01T04:14:38.017Z,-51
2016-09-01T04:15:38.010Z,-50
2016-09-01T04:16:38.046Z,-51
2016-09-01T04:17:38.000Z,-51
2016-09-01T04:18:37.999Z,-49
2016-09-01T04:19:37.971Z,-50
2016-09-01T04:20:38.012Z,-50
2016-09-01T04:21:38.050Z,-49
2016-09-01T04:22:37.980Z,-50
2016-09-01T04:23:37.987Z,-52
2016-09-01T04:24:38.012Z,-52
2016-09-01T04:25:37.986Z,-53
2016-09-01T04:26:37.997Z,-52
2016-09-01T04:27:38.559Z,-53
2016-09-01T04:28:37.969Z,-53
2016-09-01T04:29:38.054Z,-53
2016-09-01T04:30:38.796Z,-53
2016-09-01T04:31:38.015Z,-53
2016-09-01T04:32:37.999Z,-53
2016-09-01T04:33:38.152Z,-53
2016-09-01T04:34:38.069Z,-52
2016-09-01T04:35:38.030Z,-53
2016-09-01T04:36:38.033Z,-53
2016-09-01T04:37:38.054Z,-52
2016-09-01T04:38:37.974Z,-51
2016-09-01T04:39:38.083Z,-51
2016-09-01T04:40:38.033Z,-52
2016-09-01T04:41:38.543Z,-51
2016-09-01T04:42:39.187Z,-52
2016-09-01T04:43:39.382Z,-53
2016-09-01T04:44:38.943Z,-49
2016-09-01T04:45:38.025Z,-52
2016-09-01T04:46:38.425Z,-51
2016-09-01T04:47:39.770Z,-51
2016-09-01T04:48:39.684Z,-49
2016-09-01T04:49:38.247Z,-51
2016-09-01T04:50:38.064Z,-51
2016-09-01T04:51:38.184Z,-51
2016-09-01T04:52:38.030Z,-53
2016-09-01T04:53:38.324Z,-52
2016-09-01T04:54:38.256Z,-52
2016-09-01T04:55:38.610Z,-51
2016-09-01T04:56:38.189Z,-52
2016-09-01T04:57:38.249Z,-51
2016-09-01T04:58:38.632Z,-49
2016-09-01T04:59:39.129Z,-50
2016-09-01T05:00:38.828Z,-53
2016-09-01T05:01:39.081Z,-53
2016-09-01T05:02:38.888Z,-51
2016-09-01T05:03:38.582Z,-50
2016-09-01T05:04:38.005Z,-50
2016-09-01T05:05:38.421Z,-50
2016-09-01T05:06:39.202Z,-53
2016-09-01T05:07:38.047Z,-53
2016-09-01T05:08:38.012Z,-52
2016-09-01T05:09:38.096Z,-49
2016-09-01T05:10:38.919Z,-49
2016-09-01T05:11:39.234Z,-52
2016-09-01T05:12:38.421Z,-51
2016-09-01T05:13:38.180Z,-50
2016-09-01T05:14:39.082Z,-52
2016-09-01T05:15:38.676Z,-52
2016-09-01T05:16:38.653Z,-49
2016-09-01T05:17:38.061Z,-51
2016-09-01T05:18:38.044Z,-50
2016-09-01T05:19:38.077Z,-50
2016-09-01T05:20:38.080Z,-51
2016-09-01T05:21:38.079Z,-51
2016-09-01T05:22:38.023Z,-52
2016-09-01T05:23:38.335Z,-53
2016-09-01T05:24:38.198Z,-48
2016-09-01T05:25:38.092Z,-51
2016-09-01T05:26:38.560Z,-50
2016-09-01T05:27:38.174Z,-50
2016-09-01T05:28:38.094Z,-50
2016-09-01T05:29:38.039Z,-49
2016-09-01T05:30:38.369Z,-49
2016-09-01T05:31:38.030Z,-50
2016-09-01T05:32:38.353Z,-51
2016-09-01T05:33:38.061Z,-52
2016-09-01T05:34:38.062Z,-53
2016-09-01T05:35:38.068Z,-52
2016-09-01T05:36:39.308Z,-52
2016-09-01T05:37:38.048Z,-53
2016-09-01T05:38:38.066Z,-52
2016-09-01T05:39:38.107Z,-52
2016-09-01T05:40:38.653Z,-52
2016-09-01T05:41:38.767Z,-47
2016-09-01T05:42:38.755Z,-51
2016-09-01T05:43:38.063Z,-50
2016-09-01T05:44:38.959Z,-49
2016-09-01T05:45:39.433Z,-50
2016-09-01T05:46:39.142Z,-49
2016-09-01T05:47:38.151Z,-51
2016-09-01T05:48:38.160Z,-51
2016-09-01T05:49:38.154Z,-54
2016-09-01T05:50:39.012Z,-51
2016-09-01T05:51:38.618Z,-51
2016-09-01T05:52:38.116Z,-50
2016-09-01T05:53:38.964Z,-50
2016-09-01T05:54:38.116Z,-50
2016-09-01T05:55:38.182Z,-50
2016-09-01T05:56:38.123Z,-50
2016-09-01T05:57:38.196Z,-50
2016-09-01T05:58:38.281Z,-50
2016-09-01T05:59:38.084Z,-49
2016-09-01T06:00:38.082Z,-50
2016-09-01T06:01:38.128Z,-50
2016-09-01T06:02:38.093Z,-51
2016-09-01T06:03:38.154Z,-52
2016-09-01T06:04:38.078Z,-51
2016-09-01T06:05:38.137Z,-52
2016-09-01T06:06:38.148Z,-51
2016-09-01T06:07:38.079Z,-50
2016-09-01T06:08:38.080Z,-50
2016-09-01T06:09:38.154Z,-50
2016-09-01T06:10:38.127Z,-51
2016-09-01T06:11:38.080Z,-51
2016-09-01T06:12:38.154Z,-48
2016-09-01T06:13:38.115Z,-51
2016-09-01T06:14:38.164Z,-50
2016-09-01T06:15:38.126Z,-50
2016-09-01T06:16:38.165Z,-50
2016-09-01T06:17:38.115Z,-51
2016-09-01T06:18:38.049Z,-50
2016-09-01T06:19:38.141Z,-50
2016-09-01T06:20:38.223Z,-50
2016-09-01T06:21:38.635Z,-51
2016-09-01T06:22:38.119Z,-49
2016-09-01T06:23:38.127Z,-50
2016-09-01T06:24:38.776Z,-48
2016-09-01T06:25:38.556Z,-51
2016-09-01T06:26:38.186Z,-53
2016-09-01T06:27:38.214Z,-52
2016-09-01T06:28:38.101Z,-50
2016-09-01T06:29:38.132Z,-50
2016-09-01T06:30:38.158Z,-50
2016-09-01T06:31:38.110Z,-51
2016-09-01T06:32:38.116Z,-50
2016-09-01T06:33:38.139Z,-51
2016-09-01T06:34:38.182Z,-51
2016-09-01T06:35:38.128Z,-50
2016-09-01T06:36:38.169Z,-54
2016-09-01T06:37:38.129Z,-48
2016-09-01T06:38:38.135Z,-47
2016-09-01T06:39:38.114Z,-48
2016-09-01T06:40:38.145Z,-46
2016-09-01T06:41:38.141Z,-47
2016-09-01T06:42:38.149Z,-48
2016-09-01T06:43:38.126Z,-48
2016-09-01T06:44:38.189Z,-48
2016-09-01T06:45:38.115Z,-48
2016-09-01T06:46:38.190Z,-49
2016-09-01T06:47:38.172Z,-48
2016-09-01T06:48:38.203Z,-48
2016-09-01T06:49:38.152Z,-50
2016-09-01T06:50:38.201Z,-50
2016-09-01T06:51:38.192Z,-50
2016-09-01T06:52:38.178Z,-50
2016-09-01T06:53:38.131Z,-50
2016-09-01T06:54:38.123Z,-51
2016-09-01T06:55:38.273Z,-51
2016-09-01T06:56:38.223Z,-50
2016-09-01T06:57:38.186Z,-48
2016-09-01T06:58:38.161Z,-48
2016-09-01T06:59:38.142Z,-50
2016-09-01T07:00:38.189Z,-49
2016-09-01T07:01:38.127Z,-48
2016-09-01T07:02:38.161Z,-49
2016-09-01T07:03:38.217Z,-48
2016-09-01T07:04:38.232Z,-51
2016-09-01T07:05:38.232Z,-50
2016-09-01T07:06:38.234Z,-51
2016-09-01T07:07:38.712Z,-51
2016-09-01T07:08:38.219Z,-48
2016-09-01T07:09:38.443Z,-46
2016-09-01T07:10:38.192Z,-49
2016-09-01T07:11:38.173Z,-48
2016-09-01T07:12:38.368Z,-49
2016-09-01T07:13:38.660Z,-49
2016-09-01T07:14:38.201Z,-50
2016-09-01T07:15:38.205Z,-50
2016-09-01T07:16:38.848Z,-49
2016-09-01T07:17:38.250Z,-50
2016-09-01T07:18:38.206Z,-49
2016-09-01T07:19:38.437Z,-49
2016-09-01T07:20:38.848Z,-50
2016-09-01T07:21:38.933Z,-47
2016-09-01T07:22:38.237Z,-50
2016-09-01T07:23:38.202Z,-51
2016-09-01T07:24:38.209Z,-50
2016-09-01T07:25:38.196Z,-49
2016-09-01T07:26:38.233Z,-51
2016-09-01T07:27:38.221Z,-52
2016-09-01T07:28:38.238Z,-50
2016-09-01T07:29:38.267Z,-49
2016-09-01T07:30:38.256Z,-50
2016-09-01T07:31:38.234Z,-50
2016-09-01T07:32:38.307Z,-50
2016-09-01T07:33:38.237Z,-46
2016-09-01T07:34:38.233Z,-49
2016-09-01T07:35:39.064Z,-49
2016-09-01T07:36:39.154Z,-48
2016-09-01T07:37:38.759Z,-48
2016-09-01T07:38:38.202Z,-49
2016-09-01T07:39:38.388Z,-48
2016-09-01T07:40:39.225Z,-51
2016-09-01T07:41:38.239Z,-51
2016-09-01T07:42:38.252Z,-51
2016-09-01T07:43:38.280Z,-50
2016-09-01T07:44:38.304Z,-50
2016-09-01T07:45:39.232Z,-50
2016-09-01T07:46:38.283Z,-51
2016-09-01T07:47:38.416Z,-50
2016-09-01T07:48:38.329Z,-50
2016-09-01T07:49:38.856Z,-49
2016-09-01T07:50:38.295Z,-52
2016-09-01T07:51:38.395Z,-50
2016-09-01T07:52:38.356Z,-50
2016-09-01T07:53:38.250Z,-51
2016-09-01T07:54:38.888Z,-51
2016-09-01T07:55:38.310Z,-49
2016-09-01T07:56:38.240Z,-50
2016-09-01T07:57:38.315Z,-51
2016-09-01T07:58:38.286Z,-50
2016-09-01T07:59:38.342Z,-49
2016-09-01T08:00:38.275Z,-47
2016-09-01T08:01:38.479Z,-50
2016-09-01T08:02:38.251Z,-50
2016-09-01T08:03:38.239Z,-50
2016-09-01T08:04:38.234Z,-50
2016-09-01T08:05:38.245Z,-50
2016-09-01T08:06:38.209Z,-49
2016-09-01T08:07:38.204Z,-48
2016-09-01T08:08:38.283Z,-49
2016-09-01T08:09:38.791Z,-48
2016-09-01T08:10:38.339Z,-48
2016-09-01T08:11:38.246Z,-48
2016-09-01T08:12:38.263Z,-49
2016-09-01T08:13:38.357Z,-49
2016-09-01T08:14:38.282Z,-49
2016-09-01T08:15:38.317Z,-49
2016-09-01T08:16:38.314Z,-49
2016-09-01T08:17:38.240Z,-49
2016-09-01T08:18:38.264Z,-49
2016-09-01T08:19:38.194Z,-48
2016-09-01T08:20:38.215Z,-48
2016-09-01T08:21:38.807Z,-49
2016-09-01T08:22:38.457Z,-49
2016-09-01T08:23:38.499Z,-49
2016-09-01T08:24:38.916Z,-48
2016-09-01T08:25:38.333Z,-49
2016-09-01T08:26:39.283Z,-45
2016-09-01T08:27:38.790Z,-48
2016-09-01T08:28:38.417Z,-48
2016-09-01T08:29:38.282Z,-49
2016-09-01T08:30:38.314Z,-48
2016-09-01T08:31:38.329Z,-47
2016-09-01T08:32:39.207Z,-50
2016-09-01T08:33:39.064Z,-51
2016-09-01T08:34:39.006Z,-50
2016-09-01T08:35:38.772Z,-49
2016-09-01T08:36:38.377Z,-46
2016-09-01T08:37:39.114Z,-49
2016-09-01T08:38:38.397Z,-49
2016-09-01T08:39:38.352Z,-50
2016-09-01T08:40:38.820Z,-50
2016-09-01T08:41:39.037Z,-48
2016-09-01T08:42:38.356Z,-49
2016-09-01T08:43:38.437Z,-46
2016-09-01T08:44:38.451Z,-49
2016-09-01T08:45:38.433Z,-48
2016-09-01T08:46:38.530Z,-48
2016-09-01T08:47:38.358Z,-49
2016-09-01T08:48:38.291Z,-52
2016-09-01T08:49:38.299Z,-48
2016-09-01T08:50:39.348Z,-48
2016-09-01T08:51:38.328Z,-49
2016-09-01T08:52:38.446Z,-49
2016-09-01T08:53:38.356Z,-48
2016-09-01T08:54:38.364Z,-49
2016-09-01T08:55:38.433Z,-49
2016-09-01T08:56:38.301Z,-49
2016-09-01T08:57:38.339Z,-48
2016-09-01T08:58:38.451Z,-48
2016-09-01T08:59:38.674Z,-49
2016-09-01T09:00:38.508Z,-50
2016-09-01T09:01:38.269Z,-47
2016-09-01T09:02:38.341Z,-49
2016-09-01T09:03:38.378Z,-50
2016-09-01T09:04:38.499Z,-49
2016-09-01T09:05:38.454Z,-49
2016-09-01T09:06:38.428Z,-50
2016-09-01T09:07:38.391Z,-50
2016-09-01T09:08:39.251Z,-49
2016-09-01T09:09:38.451Z,-48
2016-09-01T09:10:38.285Z,-47
2016-09-01T09:11:38.387Z,-52
2016-09-01T09:12:38.919Z,-51
2016-09-01T09:13:38.429Z,-51
2016-09-01T09:14:38.333Z,-52
2016-09-01T09:15:38.315Z,-51
2016-09-01T09:16:38.562Z,-50
2016-09-01T09:17:38.401Z,-51
2016-09-01T09:18:38.304Z,-51
2016-09-01T09:19:38.335Z,-51
2016-09-01T09:20:39.066Z,-50
2016-09-01T09:21:39.427Z,-48
2016-09-01T09:22:39.452Z,-50
2016-09-01T09:23:38.670Z,-49
2016-09-01T09:24:38.638Z,-49
2016-09-01T09:25:38.945Z,-48
2016-09-01T09:26:38.463Z,-50
2016-09-01T09:27:38.374Z,-49
2016-09-01T09:28:38.346Z,-51
2016-09-01T09:29:38.429Z,-49
2016-09-01T09:30:38.357Z,-50
2016-09-01T09:31:38.379Z,-49
2016-09-01T09:32:38.362Z,-49
2016-09-01T09:33:38.383Z,-51
2016-09-01T09:34:38.471Z,-50
2016-09-01T09:35:39.571Z,-50
2016-09-01T09:36:38.748Z,-51
2016-09-01T09:37:38.469Z,-51
2016-09-01T09:38:38.380Z,-47
2016-09-01T09:39:38.365Z,-50
2016-09-01T09:40:38.390Z,-51
2016-09-01T09:41:38.319Z,-48
2016-09-01T09:42:38.370Z,-49
2016-09-01T09:43:38.382Z,-49
2016-09-01T09:44:38.500Z,-49
2016-09-01T09:45:38.393Z,-46
2016-09-01T09:46:38.445Z,-49
2016-09-01T09:47:38.908Z,-49
2016-09-01T09:48:38.348Z,-48
2016-09-01T09:49:38.375Z,-48
2016-09-01T09:50:38.428Z,-48
2016-09-01T09:51:38.374Z,-48
2016-09-01T09:52:38.380Z,-48
2016-09-01T09:53:38.386Z,-49
2016-09-01T09:54:38.370Z,-49
2016-09-01T09:55:38.368Z,-49
2016-09-01T09:56:38.603Z,-49
2016-09-01T09:57:39.004Z,-48
2016-09-01T09:58:38.468Z,-49
2016-09-01T09:59:38.458Z,-50
2016-09-01T10:00:38.405Z,-49
2016-09-01T10:01:38.367Z,-47
2016-09-01T10:02:38.379Z,-49
2016-09-01T10:03:38.426Z,-48
2016-09-01T10:04:38.365Z,-50
2016-09-01T10:05:38.340Z,-48
2016-09-01T10:06:38.363Z,-51
2016-09-01T10:07:38.315Z,-49
2016-09-01T10:08:38.332Z,-51
2016-09-01T10:09:38.983Z,-50
2016-09-01T10:10:38.963Z,-48
2016-09-01T10:11:38.322Z,-50
2016-09-01T10:12:38.435Z,-48
2016-09-01T10:13:38.404Z,-49
2016-09-01T10:14:38.389Z,-46
2016-09-01T10:15:38.363Z,-49
2016-09-01T10:16:38.514Z,-48
2016-09-01T10:17:38.409Z,-46
2016-09-01T10:18:38.475Z,-49
2016-09-01T10:19:38.405Z,-51
2016-09-01T10:20:38.967Z,-50
2016-09-01T10:21:38.424Z,-48
2016-09-01T10:22:38.343Z,-50
2016-09-01T10:23:39.609Z,-49
2016-09-01T10:24:38.443Z,-51
2016-09-01T10:25:38.475Z,-50
2016-09-01T10:26:38.484Z,-50
2016-09-01T10:27:38.379Z,-49
2016-09-01T10:28:38.618Z,-49
2016-09-01T10:29:38.388Z,-49
2016-09-01T10:30:38.393Z,-49
2016-09-01T10:31:39.028Z,-49
2016-09-01T10:32:38.483Z,-48
2016-09-01T10:33:38.383Z,-48
2016-09-01T10:34:38.470Z,-49
2016-09-01T10:35:38.510Z,-51
2016-09-01T10:36:38.499Z,-48
2016-09-01T10:37:38.423Z,-51
2016-09-01T10:38:38.487Z,-49
2016-09-01T10:39:38.466Z,-49
2016-09-01T10:40:38.501Z,-48
2016-09-01T10:41:38.439Z,-49
2016-09-01T10:42:38.443Z,-49
2016-09-01T10:43:38.435Z,-49
2016-09-01T10:44:38.455Z,-47
2016-09-01T10:45:38.516Z,-48
2016-09-01T10:46:38.428Z,-49
2016-09-01T10:47:38.462Z,-48
2016-09-01T10:48:38.465Z,-46
2016-09-01T10:49:38.470Z,-47
2016-09-01T10:50:38.547Z,-49
2016-09-01T10:51:38.964Z,-49
2016-09-01T10:52:38.522Z,-48
2016-09-01T10:53:38.455Z,-48
2016-09-01T10:54:38.424Z,-49
2016-09-01T10:55:38.420Z,-49
2016-09-01T10:56:39.086Z,-48
2016-09-01T10:57:38.445Z,-49
2016-09-01T10:58:38.456Z,-48
2016-09-01T10:59:38.436Z,-49
2016-09-01T11:00:38.429Z,-49
2016-09-01T11:01:38.477Z,-49
2016-09-01T11:02:38.408Z,-49
2016-09-01T11:03:39.029Z,-49
2016-09-01T11:04:39.421Z,-51
2016-09-01T11:05:38.415Z,-52
2016-09-01T11:06:38.395Z,-51
2016-09-01T11:07:38.430Z,-51
2016-09-01T11:08:38.423Z,-50
2016-09-01T11:09:39.324Z,-51
2016-09-01T11:10:38.395Z,-50
2016-09-01T11:11:38.418Z,-51
2016-09-01T11:12:38.494Z,-51
2016-09-01T11:13:38.452Z,-49
2016-09-01T11:14:39.376Z,-50
2016-09-01T11:15:38.532Z,-50
2016-09-01T11:16:38.567Z,-49
2016-09-01T11:17:38.472Z,-51
2016-09-01T11:18:38.461Z,-52
2016-09-01T11:19:39.250Z,-52
2016-09-01T11:20:38.547Z,-50
2016-09-01T11:21:39.478Z,-50
2016-09-01T11:22:38.514Z,-50
2016-09-01T11:23:39.867Z,-51
2016-09-01T11:24:38.478Z,-52
2016-09-01T11:25:38.481Z,-51
2016-09-01T11:26:38.464Z,-51
2016-09-01T11:27:38.494Z,-51
2016-09-01T11:28:38.511Z,-52
2016-09-01T11:29:38.415Z,-52
2016-09-01T11:30:38.512Z,-51
2016-09-01T11:31:38.495Z,-50
2016-09-01T11:32:38.532Z,-49
2016-09-01T11:33:38.459Z,-49
2016-09-01T11:34:38.512Z,-49
2016-09-01T11:35:38.508Z,-49
2016-09-01T11:36:38.532Z,-47
2016-09-01T11:37:38.460Z,-48
2016-09-01T11:38:38.488Z,-48
2016-09-01T11:39:38.564Z,-49
2016-09-01T11:40:38.455Z,-48
2016-09-01T11:41:38.488Z,-46
2016-09-01T11:42:38.488Z,-49
2016-09-01T11:43:38.751Z,-49
2016-09-01T11:44:38.491Z,-47
2016-09-01T11:45:38.514Z,-49
2016-09-01T11:46:38.445Z,-48
2016-09-01T11:47:38.438Z,-48
2016-09-01T11:48:38.445Z,-48
2016-09-01T11:49:38.516Z,-50
2016-09-01T11:50:38.458Z,-48
2016-09-01T11:51:38.445Z,-48
2016-09-01T11:52:38.538Z,-49
2016-09-01T11:53:38.490Z,-48
2016-09-01T11:54:51.021Z,-50
2016-09-01T11:55:38.491Z,-50
2016-09-01T11:56:38.466Z,-50
2016-09-01T11:57:38.428Z,-50
2016-09-01T11:58:38.447Z,-51
2016-09-01T11:59:38.540Z,-51
2016-09-01T12:00:38.597Z,-48
2016-09-01T12:01:38.427Z,-51
2016-09-01T12:02:38.460Z,-50
2016-09-01T12:03:38.441Z,-51
2016-09-01T12:04:38.549Z,-51
2016-09-01T12:05:38.477Z,-50
2016-09-01T12:06:38.516Z,-49
2016-09-01T12:07:38.464Z,-49
2016-09-01T12:08:38.535Z,-48
2016-09-01T12:09:38.419Z,-48
2016-09-01T12:10:38.488Z,-49
2016-09-01T12:11:38.495Z,-49
2016-09-01T12:12:38.475Z,-49
2016-09-01T12:13:38.479Z,-48
2016-09-01T12:14:38.528Z,-49
2016-09-01T12:15:38.446Z,-48
2016-09-01T12:16:38.497Z,-48
2016-09-01T12:17:38.477Z,-48
2016-09-01T12:18:38.466Z,-48
2016-09-01T12:19:38.476Z,-48
2016-09-01T12:20:38.440Z,-48
2016-09-01T12:21:38.503Z,-48
2016-09-01T12:22:38.494Z,-48
2016-09-01T12:23:38.748Z,-48
2016-09-01T12:24:38.417Z,-48
2016-09-01T12:25:38.498Z,-49
2016-09-01T12:26:38.481Z,-49
2016-09-01T12:27:38.458Z,-48
2016-09-01T12:28:38.545Z,-49
2016-09-01T12:29:38.585Z,-49
2016-09-01T12:30:38.488Z,-49
2016-09-01T12:31:38.478Z,-48
2016-09-01T12:32:38.562Z,-49
2016-09-01T12:33:38.468Z,-50
2016-09-01T12:34:38.536Z,-49
2016-09-01T12:35:38.484Z,-47
2016-09-01T12:36:38.545Z,-48
2016-09-01T12:37:38.491Z,-49
2016-09-01T12:38:38.506Z,-49
2016-09-01T12:39:38.551Z,-50
2016-09-01T12:40:38.470Z,-48
2016-09-01T12:41:38.527Z,-48
2016-09-01T12:42:38.503Z,-48
2016-09-01T12:43:38.556Z,-49
2016-09-01T12:44:38.599Z,-49
2016-09-01T12:45:38.529Z,-50
2016-09-01T12:46:38.513Z,-50
2016-09-01T12:47:38.552Z,-49
2016-09-01T12:48:38.514Z,-48
2016-09-01T12:49:38.509Z,-48
2016-09-01T12:50:38.543Z,-47
2016-09-01T12:51:38.645Z,-48
2016-09-01T12:52:38.525Z,-47
2016-09-01T12:53:38.542Z,-48
2016-09-01T12:54:38.722Z,-49
2016-09-01T12:55:38.550Z,-48
2016-09-01T12:56:38.707Z,-48
2016-09-01T12:57:38.592Z,-48
2016-09-01T12:58:38.545Z,-49
2016-09-01T12:59:38.575Z,-50
2016-09-01T13:00:38.536Z,-49
2016-09-01T13:01:38.558Z,-49
2016-09-01T13:02:38.610Z,-49
2016-09-01T13:03:38.513Z,-49
2016-09-01T13:04:38.665Z,-50
2016-09-01T13:05:38.596Z,-50
2016-09-01T13:06:38.486Z,-50
2016-09-01T13:07:38.567Z,-50
2016-09-01T13:08:38.522Z,-50
2016-09-01T13:09:38.537Z,-50
2016-09-01T13:10:39.448Z,-51
2016-09-01T13:11:38.767Z,-48
2016-09-01T13:12:38.718Z,-49
2016-09-01T13:13:38.596Z,-50
2016-09-01T13:14:38.594Z,-49
2016-09-01T13:15:38.652Z,-48
2016-09-01T13:16:38.858Z,-51
2016-09-01T13:17:38.889Z,-49
2016-09-01T13:18:38.545Z,-50
2016-09-01T13:19:38.653Z,-50
2016-09-01T13:20:38.539Z,-50
2016-09-01T13:21:44.557Z,-49
2016-09-01T13:22:38.631Z,-50
2016-09-01T13:23:38.625Z,-49
2016-09-01T13:24:39.230Z,-49
2016-09-01T13:25:38.615Z,-49
2016-09-01T13:26:38.771Z,-49
2016-09-01T13:27:39.205Z,-49
2016-09-01T13:28:39.212Z,-49
2016-09-01T13:29:39.424Z,-49
2016-09-01T13:30:38.625Z,-50
2016-09-01T13:31:38.892Z,-49
2016-09-01T13:32:38.633Z,-49
2016-09-01T13:33:39.120Z,-51
2016-09-01T13:34:38.861Z,-49
2016-09-01T13:35:38.589Z,-50
2016-09-01T13:36:38.643Z,-50
2016-09-01T13:37:38.952Z,-49
2016-09-01T13:38:38.537Z,-49
2016-09-01T13:39:38.601Z,-48
2016-09-01T13:40:38.561Z,-49
2016-09-01T13:41:39.036Z,-48
2016-09-01T13:42:38.650Z,-49
2016-09-01T13:43:38.946Z,-49
2016-09-01T13:44:38.690Z,-50
2016-09-01T13:45:38.675Z,-49
2016-09-01T13:46:38.996Z,-49